< < Back
Terminal Aerodrome Forecast


Current Version              Previous Versions:   1  2  3  4  5  6  7  8  9  

Terminal Aerodrome Forecast

469
FTUS42 KGSP 302133 AAA
TAFAND
TAF AMD
KAND 302133Z 3022/3118 33006KT P6SM VCTS BKN045CB
      TEMPO 3022/3023 VRB15KT 3SM -TSRA BKN040CB
     FM310000 04004KT P6SM SCT250
      TEMPO 3109/3112 4SM BR
     FM311200 06004KT P6SM SCT045=

Latest METAR

856
SAUS70 KWBC 302200 RRC
MTRAND
METAR KAND 302156Z AUTO 22018G28KT 2 1/2SM +RA FEW047 BKN075 OVC095
22/17 A2994 RMK AO2 PK WND 29028/2151 WSHFT 2142 RAB44 SLP132
P0007 T02220167


USA.gov is the U.S. government's official web portal to all federal, state and local government web resources and services.